createdAt,value
2019-01-21T00:00:58.767Z,98701.30
2019-01-21T00:03:27.707Z,98693.54
2019-01-21T00:05:55.794Z,98693.54
2019-01-21T00:08:25.403Z,98692.73
2019-01-21T00:10:53.800Z,98692.23
2019-01-21T00:13:22.858Z,98698.41
2019-01-21T00:15:51.856Z,98679.73
2019-01-21T00:18:22.386Z,98690.67
2019-01-21T00:20:52.769Z,98690.67
2019-01-21T00:23:41.582Z,98697.35
2019-01-21T00:26:12.782Z,98705.33
2019-01-21T00:28:42.816Z,98699.97
2019-01-21T00:31:13.330Z,98705.54
2019-01-21T00:33:44.002Z,98708.78
2019-01-21T00:38:09.831Z,98709.83
2019-01-21T00:40:39.841Z,98708.73
2019-01-21T00:43:10.756Z,98713.80
2019-01-21T00:47:04.393Z,98707.95
2019-01-21T00:49:35.824Z,98715.69
2019-01-21T00:53:47.671Z,98708.98
2019-01-21T00:56:17.881Z,98715.14
2019-01-21T00:58:49.726Z,98718.61
2019-01-21T01:01:20.887Z,98722.06
2019-01-21T01:03:51.754Z,98719.63
2019-01-21T01:06:22.835Z,98715.11
2019-01-21T01:14:45.347Z,98723.10
2019-01-21T01:17:16.300Z,98731.62
2019-01-21T01:19:46.880Z,98733.18
2019-01-21T01:22:18.042Z,98731.84
2019-01-21T01:24:49.400Z,98733.17
2019-01-21T01:27:21.828Z,98708.07
2019-01-21T01:30:17.514Z,98737.73
2019-01-21T01:32:46.713Z,98748.39
2019-01-21T01:35:18.890Z,98739.84
2019-01-21T01:37:49.883Z,98748.65
2019-01-21T01:40:21.874Z,98744.62
2019-01-21T01:42:52.892Z,98739.28
2019-01-21T01:45:24.833Z,98744.34
2019-01-21T01:48:00.834Z,98738.16
2019-01-21T01:50:31.790Z,98748.31
2019-01-21T01:53:01.842Z,98748.31
2019-01-21T01:55:33.650Z,98748.04
2019-01-21T01:58:07.341Z,98738.92
2019-01-21T02:00:38.429Z,98738.92
2019-01-21T02:03:06.997Z,98745.63
2019-01-21T02:05:37.859Z,98749.08
2019-01-21T02:08:07.795Z,98744.78
2019-01-21T02:10:37.823Z,98735.41
2019-01-21T02:13:07.820Z,98735.41
2019-01-21T02:15:37.820Z,98755.98
2019-01-21T02:18:07.819Z,98755.98
2019-01-21T02:20:36.460Z,98752.20
2019-01-21T02:23:09.841Z,98749.28
2019-01-21T02:25:48.841Z,98749.28
2019-01-21T02:29:00.866Z,98751.95
2019-01-21T02:35:43.737Z,98748.25
2019-01-21T02:39:17.074Z,98748.67
2019-01-21T02:42:09.807Z,98750.86
2019-01-21T02:45:19.846Z,98747.02
2019-01-21T02:51:49.376Z,98750.72
2019-01-21T02:55:08.301Z,98747.75
2019-01-21T02:58:27.105Z,98747.75
2019-01-21T03:02:33.821Z,98750.41
2019-01-21T03:05:27.764Z,98749.65
2019-01-21T03:08:30.362Z,98747.48
2019-01-21T03:12:09.538Z,98747.48
2019-01-21T03:18:53.775Z,98736.06
2019-01-21T03:22:20.656Z,98743.73
2019-01-21T03:25:25.912Z,98744.56
2019-01-21T03:32:20.894Z,98739.19
2019-01-21T03:35:22.871Z,98722.58
2019-01-21T03:38:41.807Z,98742.34
2019-01-21T03:41:19.764Z,98742.34
2019-01-21T03:44:19.798Z,98741.27
2019-01-21T03:47:06.311Z,98743.66
2019-01-21T03:49:52.400Z,98755.59
2019-01-21T03:53:38.806Z,98752.42
2019-01-21T03:56:28.792Z,98757.73
2019-01-21T03:59:22.382Z,98752.67
2019-01-21T04:02:48.768Z,98754.56
2019-01-21T04:05:39.811Z,98763.88
2019-01-21T04:08:52.675Z,98764.70
2019-01-21T04:12:07.901Z,98764.70
2019-01-21T04:15:01.828Z,98760.09
2019-01-21T04:18:27.833Z,98760.09
2019-01-21T04:21:37.354Z,98766.22
2019-01-21T04:25:26.736Z,98759.50
2019-01-21T04:28:23.571Z,98755.58
2019-01-21T04:32:02.501Z,98755.58
2019-01-21T04:35:11.759Z,98752.09
2019-01-21T04:38:22.830Z,98751.27
2019-01-21T04:41:45.833Z,98759.52
2019-01-21T04:45:28.779Z,98753.92
2019-01-21T04:48:45.471Z,98753.92
2019-01-21T04:52:25.860Z,98754.48
2019-01-21T04:55:48.777Z,98767.50
2019-01-21T05:03:00.517Z,98766.48
2019-01-21T05:06:01.515Z,98765.87
2019-01-21T05:09:31.258Z,98778.30
2019-01-21T05:13:22.015Z,98768.17
2019-01-21T05:16:39.954Z,98775.98
2019-01-21T05:19:45.875Z,98778.36
2019-01-21T05:22:52.916Z,98762.80
2019-01-21T05:25:58.044Z,98762.80
2019-01-21T05:29:25.250Z,98782.28
2019-01-21T05:33:02.090Z,98783.38
2019-01-21T05:36:40.920Z,98787.61
2019-01-21T05:40:24.965Z,98783.61
2019-01-21T05:43:16.680Z,98793.94
2019-01-21T05:46:36.255Z,98785.72
2019-01-21T05:50:04.103Z,98795.09
2019-01-21T05:53:36.382Z,98796.98
2019-01-21T05:56:38.767Z,98789.91
2019-01-21T05:59:31.846Z,98802.17
2019-01-21T06:02:20.824Z,98793.89
2019-01-21T06:05:17.763Z,98793.89
2019-01-21T06:08:44.836Z,98813.64
2019-01-21T06:11:21.893Z,98813.64
2019-01-21T06:14:10.920Z,98813.63
2019-01-21T06:17:04.943Z,98797.33
2019-01-21T06:20:12.856Z,98823.20
2019-01-21T06:23:04.944Z,98775.29
2019-01-21T06:26:29.873Z,98825.03
2019-01-21T06:29:41.846Z,98824.53
2019-01-21T06:32:29.767Z,98825.03
2019-01-21T06:39:19.255Z,98827.52
2019-01-21T06:42:20.641Z,98826.66
2019-01-21T06:45:34.980Z,98830.22
2019-01-21T06:48:40.252Z,98828.76
2019-01-21T06:52:05.571Z,98825.53
2019-01-21T06:55:40.443Z,98838.06
2019-01-21T06:59:10.784Z,98841.48
2019-01-21T07:01:48.362Z,98846.28
2019-01-21T07:05:01.246Z,98849.21
2019-01-21T07:08:25.936Z,98853.75
2019-01-21T07:11:48.311Z,98846.55
2019-01-21T07:14:53.532Z,98861.98
2019-01-21T07:17:50.785Z,98864.31
2019-01-21T07:21:10.828Z,98862.14
2019-01-21T07:24:32.522Z,98867.69
2019-01-21T07:28:05.492Z,98871.17
2019-01-21T07:31:09.811Z,98868.48
2019-01-21T07:34:41.471Z,98869.05
2019-01-21T07:38:02.997Z,98864.27
2019-01-21T07:41:35.512Z,98866.84
2019-01-21T07:45:04.814Z,98872.41
2019-01-21T07:48:11.853Z,98875.33
2019-01-21T07:53:50.655Z,98792.78
2019-01-21T07:57:26.540Z,98884.11
2019-01-21T08:01:05.840Z,98887.05
2019-01-21T08:03:59.789Z,98888.52
2019-01-21T08:06:42.861Z,98888.52
2019-01-21T08:09:52.344Z,98880.53
2019-01-21T08:14:03.951Z,98880.53
2019-01-21T08:16:53.828Z,98891.78
2019-01-21T08:19:33.362Z,98891.78
2019-01-21T08:22:46.348Z,98887.52
2019-01-21T08:26:24.556Z,98884.03
2019-01-21T08:29:50.613Z,98887.89
2019-01-21T08:32:57.358Z,98888.86
2019-01-21T08:36:20.826Z,98890.43
2019-01-21T08:39:30.825Z,98888.52
2019-01-21T08:42:20.822Z,98890.98
2019-01-21T08:45:19.821Z,98893.64
2019-01-21T08:48:46.857Z,98894.17
2019-01-21T08:51:36.860Z,98893.83
2019-01-21T08:55:35.906Z,98896.91
2019-01-21T08:59:17.375Z,98891.12
2019-01-21T09:02:57.130Z,98891.12
2019-01-21T09:06:10.800Z,98888.70
2019-01-21T09:09:17.794Z,98887.25
2019-01-21T09:12:26.032Z,98892.05
2019-01-21T09:15:35.838Z,98895.86
2019-01-21T09:18:41.811Z,98895.55
2019-01-21T09:22:15.811Z,98895.55
2019-01-21T09:24:58.824Z,98903.69
2019-01-21T09:28:08.782Z,98900.67
2019-01-21T09:31:22.247Z,98910.85
2019-01-21T09:34:10.791Z,98910.85
2019-01-21T09:37:13.346Z,98912.77
2019-01-21T09:40:49.761Z,98912.55
2019-01-21T09:43:37.781Z,98915.30
2019-01-21T09:46:52.844Z,98915.30
2019-01-21T09:49:19.381Z,98916.37
2019-01-21T09:52:13.855Z,98917.68
2019-01-21T09:54:41.881Z,98899.55
2019-01-21T09:57:14.860Z,98884.91
2019-01-21T09:59:42.787Z,98913.79
2019-01-21T10:02:10.832Z,98913.79
2019-01-21T10:04:53.773Z,98909.80
2019-01-21T10:07:42.977Z,98909.80
2019-01-21T10:10:45.338Z,98908.48
2019-01-21T10:14:27.780Z,98908.48
2019-01-21T10:17:39.874Z,98914.32
2019-01-21T10:20:40.791Z,98912.76
2019-01-21T10:23:53.777Z,98901.08
2019-01-21T10:27:03.773Z,98910.39
2019-01-21T10:29:54.733Z,98909.09
2019-01-21T10:32:46.766Z,98905.06
2019-01-21T10:35:52.725Z,98900.32
2019-01-21T10:38:58.763Z,98903.23
2019-01-21T10:41:46.775Z,98903.23
2019-01-21T10:46:18.764Z,98895.04
2019-01-21T10:49:01.389Z,98891.78
2019-01-21T10:52:10.662Z,98893.12
2019-01-21T10:55:54.791Z,98885.92
2019-01-21T10:58:56.303Z,98888.36
2019-01-21T11:02:25.809Z,98882.47
2019-01-21T11:05:35.794Z,98880.89
2019-01-21T11:08:14.820Z,98880.89
2019-01-21T11:10:57.303Z,98884.62
2019-01-21T11:14:28.775Z,98884.62
2019-01-21T11:17:47.757Z,98875.30
2019-01-21T11:21:16.355Z,98870.55
2019-01-21T11:27:37.852Z,98870.30
2019-01-21T11:30:17.772Z,98865.00
2019-01-21T11:33:15.783Z,98865.00
2019-01-21T11:36:11.777Z,98868.98
2019-01-21T11:39:11.290Z,98866.25
2019-01-21T11:41:57.858Z,98862.51
2019-01-21T11:47:33.842Z,98855.73
2019-01-21T11:50:46.863Z,98853.84
2019-01-21T11:53:31.748Z,98861.56
2019-01-21T11:56:58.844Z,98860.23
2019-01-21T11:59:57.956Z,98838.53
2019-01-21T12:02:52.502Z,98838.53
2019-01-21T12:06:14.990Z,98855.16
2019-01-21T12:09:20.816Z,98837.57
2019-01-21T12:12:23.782Z,98837.57
2019-01-21T12:15:43.380Z,98850.84
2019-01-21T12:19:35.730Z,98848.75
2019-01-21T12:22:48.726Z,98847.18
2019-01-21T12:25:27.776Z,98845.34
2019-01-21T12:28:16.733Z,98842.15
2019-01-21T12:31:18.827Z,98848.34
2019-01-21T12:34:09.832Z,98838.98
2019-01-21T12:37:18.609Z,98835.95
2019-01-21T12:40:34.602Z,98835.95
2019-01-21T12:43:45.695Z,98834.22
2019-01-21T12:46:39.467Z,98832.83
2019-01-21T12:50:34.783Z,98828.03
2019-01-21T12:53:25.734Z,98826.44
2019-01-21T12:56:35.725Z,98817.16
2019-01-21T12:59:33.756Z,98824.33
2019-01-21T13:02:23.828Z,98816.60
2019-01-21T13:05:23.925Z,98804.28
2019-01-21T13:08:34.804Z,98814.24
2019-01-21T13:11:47.015Z,98814.24
2019-01-21T13:15:00.948Z,98789.13
2019-01-21T13:18:20.827Z,98785.66
2019-01-21T13:21:13.811Z,98785.66
2019-01-21T13:24:07.414Z,98805.72
2019-01-21T13:27:22.802Z,98804.14
2019-01-21T13:30:48.025Z,98799.63
2019-01-21T13:33:52.823Z,98764.84
2019-01-21T13:37:04.812Z,98764.84
2019-01-21T13:40:00.790Z,98777.16
2019-01-21T13:42:46.798Z,98777.16
2019-01-21T13:46:17.797Z,98791.60
2019-01-21T13:48:57.834Z,98791.60
2019-01-21T13:52:10.743Z,98781.11
2019-01-21T13:55:33.369Z,98781.11
2019-01-21T13:59:11.414Z,98791.30
2019-01-21T14:02:05.805Z,98789.74
2019-01-21T14:05:12.811Z,98793.95
2019-01-21T14:08:08.840Z,98785.48
2019-01-21T14:11:08.843Z,98781.40
2019-01-21T14:14:10.409Z,98718.06
2019-01-21T14:17:40.857Z,98718.06
2019-01-21T14:20:48.456Z,98786.53
2019-01-21T14:24:00.750Z,98786.53
2019-01-21T14:26:53.734Z,98787.34
2019-01-21T14:30:13.392Z,98778.23
2019-01-21T14:33:00.686Z,98778.75
2019-01-21T14:35:58.832Z,98774.54
2019-01-21T14:38:57.832Z,98765.73
2019-01-21T14:42:23.909Z,98767.88
2019-01-21T14:45:50.665Z,98759.85
2019-01-21T14:48:45.950Z,98759.85
2019-01-21T14:51:56.687Z,98752.67
2019-01-21T14:55:09.733Z,98753.74
2019-01-21T14:58:04.838Z,98746.79
2019-01-21T15:01:16.754Z,98745.24
2019-01-21T15:04:02.808Z,98745.24
2019-01-21T15:07:26.833Z,98737.46
2019-01-21T15:10:23.298Z,98753.23
2019-01-21T15:13:59.816Z,98753.23
2019-01-21T15:17:09.802Z,98747.34
2019-01-21T15:19:59.820Z,98750.21
2019-01-21T15:23:00.848Z,98750.21
2019-01-21T15:29:02.492Z,98740.64
2019-01-21T15:33:03.936Z,98755.79
2019-01-21T15:36:11.340Z,98738.66
2019-01-21T15:39:24.748Z,98738.66
2019-01-21T15:42:01.839Z,98752.05
2019-01-21T15:45:15.105Z,98742.96
2019-01-21T15:48:28.799Z,98742.96
2019-01-21T15:51:32.068Z,98758.20
2019-01-21T15:54:50.096Z,98757.94
2019-01-21T15:57:41.370Z,98764.55
2019-01-21T16:01:10.820Z,98764.55
2019-01-21T16:04:13.823Z,98765.66
2019-01-21T16:07:33.020Z,98761.87
2019-01-21T16:11:05.727Z,98748.23
2019-01-21T16:13:50.738Z,98748.23
2019-01-21T16:17:02.791Z,98761.31
2019-01-21T16:19:52.356Z,98765.06
2019-01-21T16:23:47.892Z,98763.73
2019-01-21T16:29:42.890Z,98759.72
2019-01-21T16:32:18.873Z,98767.45
2019-01-21T16:35:47.739Z,98761.38
2019-01-21T16:39:10.697Z,98763.89
2019-01-21T16:42:14.677Z,98763.89
2019-01-21T16:44:44.848Z,98767.72
2019-01-21T16:47:15.352Z,98774.09
2019-01-21T16:49:44.790Z,98774.09
2019-01-21T16:52:13.803Z,98770.09
2019-01-21T16:54:44.887Z,98770.12
2019-01-21T16:57:12.802Z,98763.19
2019-01-21T16:59:42.773Z,98759.13
2019-01-21T17:02:12.093Z,98739.30
2019-01-21T17:09:42.785Z,98743.52
2019-01-21T17:12:11.792Z,98751.01
2019-01-21T17:14:39.734Z,98751.01
2019-01-21T17:17:08.782Z,98751.42
2019-01-21T17:19:39.777Z,98751.42
2019-01-21T17:22:07.773Z,98753.36
2019-01-21T17:24:36.770Z,98749.73
2019-01-21T17:27:06.339Z,98761.91
2019-01-21T17:29:34.783Z,98761.91
2019-01-21T17:32:04.791Z,98763.75
2019-01-21T17:34:32.756Z,98749.08
2019-01-21T17:37:02.370Z,98742.13
2019-01-21T17:39:30.764Z,98742.13
2019-01-21T17:41:58.688Z,98760.26
2019-01-21T17:44:27.042Z,98756.20
2019-01-21T17:46:56.103Z,98756.20
2019-01-21T17:49:25.402Z,98762.80
2019-01-21T17:51:54.110Z,98760.35
2019-01-21T17:54:22.788Z,98761.98
2019-01-21T17:56:51.631Z,98762.12
2019-01-21T17:59:21.406Z,98758.14
2019-01-21T18:01:51.419Z,98765.61
2019-01-21T18:04:20.408Z,98757.16
2019-01-21T18:06:50.645Z,98745.66
2019-01-21T18:09:21.348Z,98745.66
2019-01-21T18:11:52.834Z,98756.66
2019-01-21T18:14:21.896Z,98761.23
2019-01-21T18:16:52.865Z,98761.23
2019-01-21T18:19:23.436Z,98763.84
2019-01-21T18:21:52.623Z,98763.84
2019-01-21T18:24:30.639Z,98763.90
2019-01-21T18:26:59.858Z,98764.48
2019-01-21T18:29:30.561Z,98762.51
2019-01-21T18:32:01.823Z,98762.51
2019-01-21T18:34:34.798Z,98761.83
2019-01-21T18:37:11.798Z,98760.31
2019-01-21T18:39:46.771Z,98764.30
2019-01-21T18:42:16.620Z,98764.25
2019-01-21T18:44:46.860Z,98772.89
2019-01-21T18:47:17.091Z,98772.89
2019-01-21T18:49:46.751Z,98776.06
2019-01-21T18:52:16.965Z,98774.37
2019-01-21T18:54:46.109Z,98769.16
2019-01-21T18:57:16.756Z,98769.16
2019-01-21T18:59:45.372Z,98771.16
2019-01-21T19:02:15.636Z,98763.31
2019-01-21T19:04:44.320Z,98758.81
2019-01-21T19:07:13.730Z,98755.84
2019-01-21T19:09:42.376Z,98752.47
2019-01-21T19:12:11.425Z,98763.08
2019-01-21T19:16:17.743Z,98759.66
2019-01-21T19:19:39.330Z,98757.75
2019-01-21T19:22:08.160Z,98757.75
2019-01-21T19:24:37.780Z,98745.82
2019-01-21T19:27:06.748Z,98765.11
2019-01-21T19:29:36.370Z,98765.11
2019-01-21T19:32:04.351Z,98743.55
2019-01-21T19:35:36.805Z,98756.75
2019-01-21T19:38:05.748Z,98756.45
2019-01-21T19:40:33.834Z,98750.78
2019-01-21T19:43:02.742Z,98749.53
2019-01-21T19:45:31.364Z,98749.53
2019-01-21T19:47:59.754Z,98742.58
2019-01-21T19:50:30.527Z,98737.54
2019-01-21T19:52:59.757Z,98741.89
2019-01-21T19:55:31.805Z,98735.20
2019-01-21T19:58:00.335Z,98734.16
2019-01-21T20:00:29.405Z,98732.88
2019-01-21T20:02:58.819Z,98731.80
2019-01-21T20:05:29.596Z,98729.39
2019-01-21T20:07:59.389Z,98729.39
2019-01-21T20:10:29.776Z,98719.20
2019-01-21T20:13:00.777Z,98738.97
2019-01-21T20:15:29.562Z,98738.97
2019-01-21T20:17:58.802Z,98735.19
2019-01-21T20:20:47.742Z,98727.75
2019-01-21T20:23:17.782Z,98729.39
2019-01-21T20:25:46.766Z,98731.28
2019-01-21T20:28:17.386Z,98721.35
2019-01-21T20:30:47.788Z,98748.60
2019-01-21T20:33:17.794Z,98737.34
2019-01-21T20:35:47.770Z,98746.36
2019-01-21T20:38:17.583Z,98746.92
2019-01-21T20:40:48.786Z,98744.56
2019-01-21T20:43:17.417Z,98744.56
2019-01-21T20:45:48.394Z,98745.64
2019-01-21T20:48:17.696Z,98666.02
2019-01-21T20:50:47.482Z,98749.68
2019-01-21T20:53:17.482Z,98749.68
2019-01-21T20:55:47.882Z,98745.17
2019-01-21T20:58:17.603Z,98747.58
2019-01-21T21:00:46.744Z,98747.58
2019-01-21T21:03:14.998Z,98750.75
2019-01-21T21:05:44.584Z,98746.71
2019-01-21T21:08:14.784Z,98746.71
2019-01-21T21:10:45.734Z,98723.24
2019-01-21T21:13:14.770Z,98723.24
2019-01-21T21:15:43.723Z,98734.47
2019-01-21T21:18:12.508Z,98731.80
2019-01-21T21:20:42.558Z,98731.80
2019-01-21T21:23:12.909Z,98727.81
2019-01-21T21:25:44.771Z,98720.63
2019-01-21T21:28:15.342Z,98705.41
2019-01-21T21:30:46.813Z,98705.41
2019-01-21T21:33:16.794Z,98719.80
2019-01-21T21:37:37.679Z,98719.30
2019-01-21T21:40:09.087Z,98718.22
2019-01-21T21:42:37.693Z,98718.22
2019-01-21T21:45:09.069Z,98719.51
2019-01-21T21:47:37.761Z,98722.47
2019-01-21T21:50:11.804Z,98716.59
2019-01-21T21:52:40.777Z,98716.59
2019-01-21T21:55:10.834Z,98704.85
2019-01-21T21:57:40.696Z,98704.85
2019-01-21T22:00:13.433Z,98704.59
2019-01-21T22:02:42.717Z,98708.59
2019-01-21T22:05:10.479Z,98707.48
2019-01-21T22:07:39.597Z,98706.95
2019-01-21T22:10:11.601Z,98709.06
2019-01-21T22:12:40.387Z,98703.95
2019-01-21T22:15:16.281Z,98703.95
2019-01-21T22:19:42.689Z,98696.27
2019-01-21T22:22:11.809Z,98689.59
2019-01-21T22:24:40.104Z,98689.59
2019-01-21T22:27:08.820Z,98688.75
2019-01-21T22:29:36.813Z,98691.09
2019-01-21T22:32:05.914Z,98699.14
2019-01-21T22:34:34.355Z,98685.27
2019-01-21T22:37:02.809Z,98685.27
2019-01-21T22:39:30.931Z,98690.85
2019-01-21T22:42:00.040Z,98680.45
2019-01-21T22:44:29.342Z,98681.48
2019-01-21T22:46:57.815Z,98681.48
2019-01-21T22:49:27.340Z,98680.14
2019-01-21T22:51:56.769Z,98680.14
2019-01-21T22:54:24.957Z,98671.33
2019-01-21T22:56:53.785Z,98661.75
2019-01-21T22:59:22.791Z,98661.75
2019-01-21T23:01:50.610Z,98658.27
2019-01-21T23:04:19.675Z,98639.27
2019-01-21T23:06:48.812Z,98639.27
2019-01-21T23:09:16.769Z,98649.16
2019-01-21T23:11:46.809Z,98653.91
2019-01-21T23:14:15.916Z,98647.82
2019-01-21T23:16:44.514Z,98643.27
2019-01-21T23:19:13.808Z,98643.27
2019-01-21T23:21:42.827Z,98643.80
2019-01-21T23:24:11.634Z,98646.19
2019-01-21T23:26:41.814Z,98646.45
2019-01-21T23:29:11.633Z,98635.49
2019-01-21T23:31:40.832Z,98643.72
2019-01-21T23:34:09.835Z,98640.25
2019-01-21T23:36:39.809Z,98632.00
2019-01-21T23:39:08.821Z,98627.74
2019-01-21T23:43:41.772Z,98620.23
2019-01-21T23:46:10.383Z,98624.22
2019-01-21T23:48:39.310Z,98609.02
2019-01-21T23:51:07.804Z,98617.05
2019-01-21T23:53:35.711Z,98611.48
2019-01-21T23:56:04.783Z,98613.83
2019-01-21T23:58:32.883Z,98607.44
